createdAt,value
2018-06-15T00:01:04.074Z,3.27
2018-06-15T00:03:32.926Z,3.83
2018-06-15T00:06:01.764Z,2.70
2018-06-15T00:08:30.621Z,3.23
2018-06-15T00:10:59.464Z,3.27
2018-06-15T00:13:28.289Z,2.70
2018-06-15T00:15:57.187Z,2.80
2018-06-15T00:18:26.018Z,3.87
2018-06-15T00:20:54.858Z,6.10
2018-06-15T00:23:23.719Z,3.13
2018-06-15T00:25:52.527Z,2.97
2018-06-15T00:28:21.501Z,4.07
2018-06-15T00:30:50.121Z,3.10
2018-06-15T00:33:18.825Z,2.80
2018-06-15T00:35:47.657Z,3.10
2018-06-15T00:38:16.512Z,4.23
2018-06-15T00:40:45.338Z,2.43
2018-06-15T00:43:14.177Z,2.87
2018-06-15T00:45:43.230Z,2.73
2018-06-15T00:48:12.109Z,2.97
2018-06-15T00:50:40.926Z,5.30
2018-06-15T00:53:09.909Z,3.13
2018-06-15T00:55:38.754Z,2.90
2018-06-15T00:58:07.562Z,5.13
2018-06-15T01:00:36.173Z,5.07
2018-06-15T01:03:04.870Z,3.23
2018-06-15T01:05:33.730Z,3.03
2018-06-15T01:08:02.561Z,4.17
2018-06-15T01:10:31.479Z,2.83
2018-06-15T01:13:00.305Z,3.77
2018-06-15T01:15:29.143Z,3.73
2018-06-15T01:17:58.044Z,3.23
2018-06-15T01:20:26.869Z,2.80
2018-06-15T01:22:55.734Z,3.37
2018-06-15T01:25:24.558Z,3.27
2018-06-15T01:27:53.385Z,4.30
2018-06-15T01:30:22.245Z,5.50
2018-06-15T01:32:51.050Z,2.57
2018-06-15T01:35:19.869Z,3.63
2018-06-15T01:37:48.732Z,3.43
2018-06-15T01:40:17.539Z,3.20
2018-06-15T01:42:46.383Z,3.10
2018-06-15T01:45:15.198Z,2.97
2018-06-15T01:47:44.034Z,2.77
2018-06-15T01:50:12.862Z,5.37
2018-06-15T01:52:41.730Z,3.13
2018-06-15T01:55:10.613Z,3.47
2018-06-15T01:57:39.461Z,2.97
2018-06-15T02:00:08.445Z,3.17
2018-06-15T02:02:37.350Z,3.03
2018-06-15T02:05:06.370Z,3.15
2018-06-15T02:07:35.224Z,3.70
2018-06-15T02:10:04.374Z,3.33
2018-06-15T02:12:33.233Z,2.97
2018-06-15T02:15:02.123Z,3.83
2018-06-15T02:17:30.935Z,3.73
2018-06-15T02:19:59.799Z,5.63
2018-06-15T02:22:28.634Z,2.93
2018-06-15T02:24:57.495Z,4.90
2018-06-15T02:27:26.375Z,3.62
2018-06-15T02:29:55.211Z,4.40
2018-06-15T02:32:24.126Z,3.57
2018-06-15T02:34:53.026Z,4.33
2018-06-15T02:37:21.658Z,3.37
2018-06-15T02:39:50.346Z,2.83
2018-06-15T02:42:19.204Z,4.13
2018-06-15T02:44:48.083Z,4.20
2018-06-15T02:47:16.910Z,3.20
2018-06-15T02:49:45.768Z,4.23
2018-06-15T02:52:14.602Z,3.87
2018-06-15T02:54:43.455Z,3.40
2018-06-15T02:57:12.322Z,3.73
2018-06-15T02:59:41.259Z,3.10
2018-06-15T03:02:10.111Z,4.27
2018-06-15T03:04:38.950Z,3.27
2018-06-15T03:07:07.810Z,3.73
2018-06-15T03:09:36.642Z,2.90
2018-06-15T03:12:05.507Z,3.37
2018-06-15T03:14:34.318Z,3.43
2018-06-15T03:17:03.164Z,3.13
2018-06-15T03:19:32.022Z,4.33
2018-06-15T03:22:00.890Z,4.03
2018-06-15T03:24:29.836Z,3.60
2018-06-15T03:26:58.642Z,5.03
2018-06-15T03:29:27.481Z,3.70
2018-06-15T03:31:56.362Z,3.07
2018-06-15T03:34:25.349Z,4.30
2018-06-15T03:36:54.242Z,2.50
2018-06-15T03:39:23.094Z,5.93
2018-06-15T03:41:51.946Z,3.43
2018-06-15T03:44:20.770Z,3.47
2018-06-15T03:46:49.874Z,3.67
2018-06-15T03:49:18.734Z,3.10
2018-06-15T03:51:47.546Z,3.90
2018-06-15T03:54:16.399Z,3.87
2018-06-15T03:56:45.201Z,3.47
2018-06-15T03:59:14.081Z,3.23
2018-06-15T04:01:42.928Z,3.23
2018-06-15T04:04:11.802Z,4.47
2018-06-15T04:06:40.629Z,3.30
2018-06-15T04:09:10.035Z,3.10
2018-06-15T04:11:39.225Z,5.20
2018-06-15T04:14:08.063Z,6.23
2018-06-15T04:16:36.891Z,3.87
2018-06-15T04:19:05.758Z,3.27
2018-06-15T04:21:34.606Z,5.10
2018-06-15T04:24:03.459Z,3.63
2018-06-15T04:26:32.434Z,3.70
2018-06-15T04:29:01.108Z,2.80
2018-06-15T04:31:29.837Z,5.60
2018-06-15T04:33:58.662Z,4.10
2018-06-15T04:36:27.470Z,3.90
2018-06-15T04:38:56.302Z,3.77
2018-06-15T04:41:25.129Z,2.90
2018-06-15T04:43:53.977Z,5.57
2018-06-15T04:46:22.785Z,4.63
2018-06-15T04:48:51.626Z,9.13
2018-06-15T04:51:20.443Z,6.10
2018-06-15T04:53:49.290Z,8.63
2018-06-15T04:56:18.188Z,8.07
2018-06-15T04:58:46.801Z,11.10
2018-06-15T05:01:15.508Z,4.93
2018-06-15T05:03:44.310Z,6.67
2018-06-15T05:06:13.116Z,5.33
2018-06-15T05:08:42.559Z,6.60
2018-06-15T05:11:11.407Z,6.70
2018-06-15T05:13:40.222Z,6.27
2018-06-15T05:16:09.046Z,7.33
2018-06-15T05:18:37.874Z,5.60
2018-06-15T05:21:09.854Z,4.90
2018-06-15T05:23:38.810Z,6.73
2018-06-15T05:26:07.635Z,7.27
2018-06-15T05:28:36.722Z,5.40
2018-06-15T05:31:05.550Z,8.30
2018-06-15T05:33:34.397Z,5.83
2018-06-15T05:36:03.222Z,6.93
2018-06-15T05:38:32.018Z,6.17
2018-06-15T05:41:00.831Z,5.23
2018-06-15T05:43:29.635Z,7.17
2018-06-15T05:45:58.442Z,5.37
2018-06-15T05:48:27.247Z,10.27
2018-06-15T05:50:56.062Z,9.57
2018-06-15T05:53:24.872Z,7.47
2018-06-15T05:55:53.686Z,7.20
2018-06-15T05:58:22.293Z,8.07
2018-06-15T06:00:50.990Z,7.77
2018-06-15T06:03:20.261Z,6.50
2018-06-15T06:05:49.561Z,11.03
2018-06-15T06:08:19.774Z,7.17
2018-06-15T06:10:49.122Z,8.03
2018-06-15T06:13:18.162Z,9.40
2018-06-15T06:15:46.931Z,8.37
2018-06-15T06:18:15.606Z,8.40
2018-06-15T06:20:44.448Z,10.40
2018-06-15T06:23:13.251Z,9.40
2018-06-15T06:25:42.103Z,11.00
2018-06-15T06:28:10.910Z,11.37
2018-06-15T06:30:39.727Z,9.03
2018-06-15T06:33:08.555Z,9.40
2018-06-15T06:35:37.166Z,10.10
2018-06-15T06:38:05.863Z,10.00
2018-06-15T06:40:34.669Z,8.50
2018-06-15T06:43:03.504Z,8.93
2018-06-15T06:45:32.270Z,8.90
2018-06-15T06:48:01.082Z,9.07
2018-06-15T06:50:29.923Z,11.37
2018-06-15T06:52:58.746Z,18.10
2018-06-15T06:55:27.570Z,16.27
2018-06-15T06:57:56.385Z,21.57
2018-06-15T07:00:25.194Z,18.50
2018-06-15T07:02:54.054Z,17.37
2018-06-15T07:05:22.884Z,15.17
2018-06-15T07:07:51.698Z,16.70
2018-06-15T07:10:20.534Z,16.00
2018-06-15T07:12:49.349Z,15.63
2018-06-15T07:15:18.240Z,16.33
2018-06-15T07:17:47.063Z,22.03
2018-06-15T07:20:15.870Z,23.67
2018-06-15T07:22:44.693Z,22.70
2018-06-15T07:25:13.546Z,19.27
2018-06-15T07:27:42.378Z,20.93
2018-06-15T07:32:48.299Z,20.47
2018-06-15T07:35:17.244Z,17.10
2018-06-15T07:37:46.074Z,19.70
2018-06-15T07:40:14.931Z,23.50
2018-06-15T07:42:43.754Z,21.57
2018-06-15T07:45:12.619Z,30.53
2018-06-15T07:47:42.489Z,22.13
2018-06-15T07:50:11.362Z,18.42
2018-06-15T07:52:40.258Z,18.97
2018-06-15T07:55:09.139Z,21.47
2018-06-15T07:57:37.981Z,20.83
2018-06-15T08:00:06.890Z,18.93
2018-06-15T08:02:35.910Z,20.63
2018-06-15T08:05:04.838Z,18.93
2018-06-15T08:07:33.531Z,20.03
2018-06-15T08:10:02.510Z,21.07
2018-06-15T08:12:31.374Z,22.10
2018-06-15T08:15:00.254Z,20.83
2018-06-15T08:17:29.113Z,15.63
2018-06-15T08:19:57.971Z,16.50
2018-06-15T08:22:26.878Z,15.67
2018-06-15T08:24:55.857Z,25.77
2018-06-15T08:27:24.477Z,31.23
2018-06-15T08:29:53.243Z,30.27
2018-06-15T08:32:22.122Z,25.07
2018-06-15T08:34:50.986Z,111.70
2018-06-15T08:37:19.927Z,31.07
2018-06-15T08:39:48.768Z,43.60
2018-06-15T08:42:17.617Z,26.10
2018-06-15T08:44:46.490Z,24.33
2018-06-15T08:47:15.366Z,23.77
2018-06-15T08:49:44.353Z,17.50
2018-06-15T08:52:13.215Z,30.37
2018-06-15T08:54:42.219Z,18.60
2018-06-15T08:57:11.077Z,13.37
2018-06-15T08:59:39.942Z,13.17
2018-06-15T09:02:08.806Z,12.10
2018-06-15T09:04:37.634Z,12.10
2018-06-15T09:07:06.567Z,14.83
2018-06-15T09:09:35.451Z,13.73
2018-06-15T09:12:04.169Z,13.33
2018-06-15T09:14:33.028Z,14.87
2018-06-15T09:17:01.860Z,13.23
2018-06-15T09:19:30.710Z,10.10
2018-06-15T09:21:59.543Z,14.33
2018-06-15T09:24:28.437Z,13.60
2018-06-15T09:26:57.316Z,11.90
2018-06-15T09:29:26.243Z,14.87
2018-06-15T09:31:55.148Z,14.10
2018-06-15T09:34:23.982Z,8.03
2018-06-15T09:36:52.982Z,9.83
2018-06-15T09:39:22.422Z,8.03
2018-06-15T09:41:51.321Z,7.07
2018-06-15T09:44:20.158Z,8.83
2018-06-15T09:46:48.990Z,6.43
2018-06-15T09:49:17.846Z,7.80
2018-06-15T09:51:46.718Z,7.97
2018-06-15T09:54:15.601Z,7.23
2018-06-15T09:56:44.482Z,6.80
2018-06-15T09:59:13.386Z,6.97
2018-06-15T10:01:42.270Z,9.27
2018-06-15T10:04:11.129Z,5.90
2018-06-15T10:06:39.988Z,12.17
2018-06-15T10:09:08.858Z,8.60
2018-06-15T10:11:37.745Z,12.47
2018-06-15T10:14:06.614Z,6.83
2018-06-15T10:16:35.505Z,8.17
2018-06-15T10:19:04.346Z,6.67
2018-06-15T10:21:33.258Z,12.43
2018-06-15T10:24:01.927Z,13.27
2018-06-15T10:26:30.684Z,10.40
2018-06-15T10:28:59.558Z,12.60
2018-06-15T10:31:28.428Z,11.03
2018-06-15T10:33:57.285Z,9.43
2018-06-15T10:36:26.381Z,7.67
2018-06-15T10:38:55.222Z,9.07
2018-06-15T10:41:24.065Z,9.10
2018-06-15T10:43:52.985Z,8.47
2018-06-15T10:46:21.846Z,10.10
2018-06-15T10:48:50.861Z,15.37
2018-06-15T10:51:19.736Z,10.03
2018-06-15T10:53:48.614Z,13.50
2018-06-15T10:56:17.394Z,9.33
2018-06-15T10:58:46.127Z,10.23
2018-06-15T11:01:15.002Z,7.77
2018-06-15T11:03:43.866Z,9.53
2018-06-15T11:06:12.775Z,13.33
2018-06-15T11:08:41.654Z,9.00
2018-06-15T11:11:10.274Z,9.60
2018-06-15T11:13:38.982Z,7.43
2018-06-15T11:16:08.078Z,8.87
2018-06-15T11:18:36.934Z,7.60
2018-06-15T11:21:05.792Z,5.87
2018-06-15T11:23:34.638Z,7.13
2018-06-15T11:26:03.471Z,8.90
2018-06-15T11:28:32.379Z,8.37
2018-06-15T11:31:01.071Z,8.37
2018-06-15T11:33:29.774Z,5.90
2018-06-15T11:35:58.621Z,6.50
2018-06-15T11:38:27.510Z,8.63
2018-06-15T11:40:56.424Z,7.10
2018-06-15T11:43:26.258Z,6.60
2018-06-15T11:45:55.113Z,6.43
2018-06-15T11:48:23.951Z,6.83
2018-06-15T11:50:52.762Z,9.10
2018-06-15T11:53:21.610Z,8.40
2018-06-15T11:55:50.482Z,6.40
2018-06-15T11:58:19.338Z,5.77
2018-06-15T12:00:48.236Z,12.63
2018-06-15T12:03:17.070Z,5.33
2018-06-15T12:05:45.920Z,7.80
2018-06-15T12:08:14.779Z,8.17
2018-06-15T12:10:43.664Z,3.73
2018-06-15T12:13:12.499Z,8.93
2018-06-15T12:15:41.351Z,6.63
2018-06-15T12:18:10.235Z,9.80
2018-06-15T12:20:39.153Z,9.10
2018-06-15T12:23:08.028Z,10.30
2018-06-15T12:25:36.658Z,9.13
2018-06-15T12:28:05.490Z,6.50
2018-06-15T12:30:34.366Z,10.20
2018-06-15T12:33:03.226Z,7.70
2018-06-15T12:35:32.074Z,8.70
2018-06-15T12:38:00.715Z,8.60
2018-06-15T12:40:29.478Z,8.77
2018-06-15T12:42:58.442Z,6.57
2018-06-15T12:45:27.487Z,6.67
2018-06-15T12:47:56.348Z,6.10
2018-06-15T12:50:25.190Z,7.70
2018-06-15T12:52:54.070Z,5.70
2018-06-15T12:55:22.926Z,12.73
2018-06-15T12:57:51.779Z,6.60
2018-06-15T13:00:20.749Z,4.93
2018-06-15T13:02:49.674Z,6.07
2018-06-15T13:05:18.566Z,26.20
2018-06-15T13:07:47.433Z,8.83
2018-06-15T13:10:16.058Z,7.90
2018-06-15T13:12:44.811Z,5.40
2018-06-15T13:15:13.667Z,5.70
2018-06-15T13:17:42.525Z,7.03
2018-06-15T13:20:11.408Z,7.87
2018-06-15T13:22:40.273Z,4.77
2018-06-15T13:25:09.151Z,7.20
2018-06-15T13:27:37.816Z,7.13
2018-06-15T13:30:06.970Z,6.55
2018-06-15T13:32:35.833Z,16.50
2018-06-15T13:35:04.792Z,15.47
2018-06-15T13:37:33.634Z,4.47
2018-06-15T13:40:02.498Z,5.07
2018-06-15T13:42:31.366Z,4.83
2018-06-15T13:45:00.214Z,4.10
2018-06-15T13:47:29.218Z,5.50
2018-06-15T13:49:58.156Z,4.80
2018-06-15T13:52:27.162Z,6.37
2018-06-15T13:54:56.026Z,5.27
2018-06-15T13:57:24.846Z,7.67
2018-06-15T13:59:53.715Z,6.07
2018-06-15T14:02:22.586Z,3.67
2018-06-15T14:04:51.438Z,3.33
2018-06-15T14:07:20.308Z,5.17
2018-06-15T14:09:49.150Z,4.83
2018-06-15T14:12:18.012Z,8.50
2018-06-15T14:14:46.878Z,5.80
2018-06-15T14:17:15.738Z,4.77
2018-06-15T14:19:44.570Z,6.90
2018-06-15T14:22:13.423Z,5.20
2018-06-15T14:24:42.250Z,5.60
2018-06-15T14:27:11.189Z,7.93
2018-06-15T14:29:40.158Z,6.53
2018-06-15T14:32:09.050Z,7.53
2018-06-15T14:34:37.960Z,6.90
2018-06-15T14:37:06.809Z,4.37
2018-06-15T14:39:35.674Z,6.97
2018-06-15T14:42:04.601Z,6.80
2018-06-15T14:44:33.422Z,8.60
2018-06-15T14:47:02.394Z,5.33
2018-06-15T14:49:31.323Z,5.13
2018-06-15T14:52:00.187Z,4.57
2018-06-15T14:54:28.861Z,5.03
2018-06-15T14:56:57.612Z,7.87
2018-06-15T14:59:26.451Z,9.00
2018-06-15T15:01:55.309Z,7.93
2018-06-15T15:04:24.166Z,5.17
2018-06-15T15:06:53.015Z,6.13
2018-06-15T15:09:21.906Z,5.37
2018-06-15T15:11:52.414Z,5.16
2018-06-15T15:14:21.303Z,7.30
2018-06-15T15:16:50.166Z,8.83
2018-06-15T15:19:19.160Z,5.90
2018-06-15T15:21:47.999Z,7.43
2018-06-15T15:24:16.856Z,7.03
2018-06-15T15:26:45.905Z,8.17
2018-06-15T15:29:14.714Z,9.17
2018-06-15T15:31:46.675Z,5.95
2018-06-15T15:34:15.518Z,5.43
2018-06-15T15:36:44.557Z,7.67
2018-06-15T15:39:13.554Z,9.07
2018-06-15T15:41:42.459Z,9.37
2018-06-15T15:44:11.286Z,8.77
2018-06-15T15:46:40.358Z,12.13
2018-06-15T15:49:09.315Z,7.30
2018-06-15T15:51:38.174Z,5.87
2018-06-15T15:54:07.015Z,5.43
2018-06-15T15:56:35.870Z,5.10
2018-06-15T15:59:04.730Z,8.03
2018-06-15T16:01:33.554Z,9.97
2018-06-15T16:04:02.556Z,11.60
2018-06-15T16:06:31.376Z,9.67
2018-06-15T16:09:00.274Z,9.67
2018-06-15T16:11:29.180Z,7.37
2018-06-15T16:13:58.083Z,7.37
2018-06-15T16:16:26.930Z,11.70
2018-06-15T16:18:55.557Z,7.87
2018-06-15T16:21:24.290Z,8.80
2018-06-15T16:23:53.165Z,8.07
2018-06-15T16:26:22.014Z,9.17
2018-06-15T16:28:50.876Z,7.93
2018-06-15T16:31:19.719Z,12.33
2018-06-15T16:33:48.575Z,9.83
2018-06-15T16:36:17.482Z,17.87
2018-06-15T16:38:46.328Z,14.27
2018-06-15T16:41:15.214Z,17.73
2018-06-15T16:43:44.074Z,16.80
2018-06-15T16:46:12.953Z,23.63
2018-06-15T16:48:42.138Z,25.93
2018-06-15T16:51:11.083Z,17.00
2018-06-15T16:53:39.920Z,25.63
2018-06-15T16:56:08.774Z,15.57
2018-06-15T16:58:37.703Z,20.97
2018-06-15T17:01:06.579Z,18.37
2018-06-15T17:03:35.438Z,13.43
2018-06-15T17:06:04.373Z,17.00
2018-06-15T17:08:33.228Z,14.80
2018-06-15T17:11:02.140Z,11.80
2018-06-15T17:13:31.010Z,10.40
2018-06-15T17:15:59.950Z,17.87
2018-06-15T17:18:28.895Z,12.20
2018-06-15T17:20:57.774Z,14.83
2018-06-15T17:23:26.680Z,13.63
2018-06-15T17:25:55.550Z,10.47
2018-06-15T17:28:24.593Z,11.37
2018-06-15T17:30:53.483Z,9.93
2018-06-15T17:33:22.319Z,15.93
2018-06-15T17:35:51.190Z,12.37
2018-06-15T17:38:20.206Z,11.07
2018-06-15T17:40:49.070Z,10.00
2018-06-15T17:43:17.758Z,11.60
2018-06-15T17:45:46.582Z,9.13
2018-06-15T17:48:15.554Z,9.23
2018-06-15T17:50:44.562Z,11.27
2018-06-15T17:53:13.414Z,10.47
2018-06-15T17:55:42.038Z,9.43
2018-06-15T17:58:10.859Z,11.13
2018-06-15T18:00:39.710Z,9.73
2018-06-15T18:03:08.539Z,7.33
2018-06-15T18:05:37.494Z,5.23
2018-06-15T18:08:06.362Z,8.80
2018-06-15T18:10:35.318Z,6.73
2018-06-15T18:13:04.210Z,7.30
2018-06-15T18:15:33.058Z,7.07
2018-06-15T18:18:01.903Z,9.17
2018-06-15T18:20:30.883Z,6.93
2018-06-15T18:22:59.802Z,8.50
2018-06-15T18:25:28.654Z,7.37
2018-06-15T18:27:57.784Z,7.67
2018-06-15T18:30:26.690Z,6.63
2018-06-15T18:32:55.563Z,6.60
2018-06-15T18:35:24.328Z,5.07
2018-06-15T18:37:53.143Z,5.23
2018-06-15T18:40:21.996Z,7.23
2018-06-15T18:42:50.945Z,6.72
2018-06-15T18:45:19.790Z,5.13
2018-06-15T18:47:48.706Z,4.80
2018-06-15T18:50:17.785Z,8.40
2018-06-15T18:52:46.656Z,6.00
2018-06-15T18:55:15.501Z,6.87
2018-06-15T18:57:44.352Z,5.90
2018-06-15T19:00:13.325Z,6.73
2018-06-15T19:02:42.174Z,7.00
2018-06-15T19:05:11.111Z,8.10
2018-06-15T19:07:39.980Z,6.93
2018-06-15T19:10:08.846Z,6.70
2018-06-15T19:12:37.726Z,9.73
2018-06-15T19:15:06.589Z,6.23
2018-06-15T19:17:35.456Z,7.07
2018-06-15T19:20:04.307Z,8.77
2018-06-15T19:22:33.190Z,6.50
2018-06-15T19:25:02.077Z,6.77
2018-06-15T19:27:30.962Z,5.33
2018-06-15T19:29:59.845Z,8.23
2018-06-15T19:32:28.726Z,8.23
2018-06-15T19:34:57.590Z,5.07
2018-06-15T19:37:26.229Z,8.43
2018-06-15T19:39:54.986Z,7.17
2018-06-15T19:42:23.842Z,5.70
2018-06-15T19:44:52.858Z,7.70
2018-06-15T19:47:21.711Z,6.63
2018-06-15T19:49:50.574Z,6.57
2018-06-15T19:52:19.437Z,11.40
2018-06-15T19:54:48.399Z,5.23
2018-06-15T19:57:17.303Z,9.53
2018-06-15T19:59:46.139Z,14.83
2018-06-15T20:02:15.913Z,8.50
2018-06-15T20:04:44.643Z,10.50
2018-06-15T20:07:13.340Z,7.60
2018-06-15T20:09:42.350Z,7.77
2018-06-15T20:12:11.178Z,8.25
2018-06-15T20:14:40.056Z,8.67
2018-06-15T20:17:08.880Z,8.70
2018-06-15T20:19:37.749Z,8.37
2018-06-15T20:22:06.584Z,6.10
2018-06-15T20:24:35.422Z,8.23
2018-06-15T20:27:04.410Z,5.97
2018-06-15T20:29:33.250Z,7.50
2018-06-15T20:32:02.406Z,8.87
2018-06-15T20:34:31.289Z,7.57
2018-06-15T20:37:01.396Z,8.47
2018-06-15T20:39:30.262Z,8.03
2018-06-15T20:41:59.107Z,11.47
2018-06-15T20:44:27.966Z,11.33
2018-06-15T20:46:56.819Z,10.60
2018-06-15T20:49:25.449Z,11.43
2018-06-15T20:51:54.194Z,9.93
2018-06-15T20:54:22.824Z,8.07
2018-06-15T20:56:51.574Z,9.23
2018-06-15T20:59:20.406Z,10.17
2018-06-15T21:01:49.327Z,9.87
2018-06-15T21:04:18.204Z,10.73
2018-06-15T21:06:47.056Z,11.57
2018-06-15T21:09:15.916Z,11.83
2018-06-15T21:11:44.586Z,9.60
2018-06-15T21:14:13.306Z,10.07
2018-06-15T21:16:42.395Z,11.27
2018-06-15T21:19:11.275Z,10.00
2018-06-15T21:21:40.158Z,8.90
2018-06-15T21:24:08.990Z,7.30
2018-06-15T21:26:37.842Z,10.37
2018-06-15T21:29:06.735Z,11.03
2018-06-15T21:31:35.607Z,8.23
2018-06-15T21:34:04.741Z,8.07
2018-06-15T21:36:33.498Z,7.90
2018-06-15T21:39:02.373Z,9.23
2018-06-15T21:41:31.260Z,13.27
2018-06-15T21:43:59.948Z,11.33
2018-06-15T21:46:28.732Z,10.87
2018-06-15T21:48:57.640Z,10.33
2018-06-15T21:51:26.494Z,10.80
2018-06-15T21:53:55.402Z,11.27
2018-06-15T21:56:24.410Z,19.27
2018-06-15T21:58:53.246Z,20.10
2018-06-15T22:01:24.385Z,17.30
2018-06-15T22:03:53.294Z,15.67
2018-06-15T22:06:22.185Z,18.37
2018-06-15T22:08:51.048Z,15.60
2018-06-15T22:11:19.889Z,16.93
2018-06-15T22:13:48.836Z,16.60
2018-06-15T22:16:17.730Z,14.77
2018-06-15T22:18:46.646Z,16.70
2018-06-15T22:21:15.550Z,17.43
2018-06-15T22:23:44.173Z,20.80
2018-06-15T22:26:12.908Z,18.67
2018-06-15T22:28:41.765Z,19.67
2018-06-15T22:31:10.704Z,15.57
2018-06-15T22:33:39.539Z,16.07
2018-06-15T22:36:09.666Z,14.37
2018-06-15T22:38:38.526Z,21.93
2018-06-15T22:41:07.414Z,26.43
2018-06-15T22:43:36.388Z,17.37
2018-06-15T22:46:05.438Z,21.10
2018-06-15T22:48:34.311Z,22.13
2018-06-15T22:51:03.238Z,22.20
2018-06-15T22:53:32.175Z,15.87
2018-06-15T22:56:01.082Z,14.73
2018-06-15T22:58:29.929Z,13.97
2018-06-15T23:00:58.834Z,17.77
2018-06-15T23:03:27.698Z,24.43
2018-06-15T23:05:56.786Z,16.73
2018-06-15T23:08:25.715Z,18.43
2018-06-15T23:10:54.582Z,18.03
2018-06-15T23:13:23.494Z,18.10
2018-06-15T23:15:52.336Z,19.17
2018-06-15T23:18:21.222Z,15.53
2018-06-15T23:20:50.094Z,21.20
2018-06-15T23:23:19.006Z,18.63
2018-06-15T23:25:47.894Z,16.95
2018-06-15T23:28:16.870Z,13.73
2018-06-15T23:30:45.794Z,16.23
2018-06-15T23:33:14.833Z,16.20
2018-06-15T23:35:43.710Z,9.53
2018-06-15T23:38:12.525Z,10.67
2018-06-15T23:40:41.382Z,10.40
2018-06-15T23:43:10.247Z,15.97
2018-06-15T23:45:39.176Z,9.97
2018-06-15T23:48:08.078Z,13.47
2018-06-15T23:50:36.942Z,11.30
2018-06-15T23:53:05.965Z,10.90
2018-06-15T23:55:34.784Z,12.93
2018-06-15T23:58:03.465Z,15.33
